createdAt,value
2023-01-27T00:03:28.347Z,99278.27
2023-01-27T00:08:35.795Z,99280.71
2023-01-27T00:13:41.438Z,99276.88
2023-01-27T00:18:48.545Z,99272.92
2023-01-27T00:24:11.663Z,99272.34
2023-01-27T00:29:18.920Z,99274.20
2023-01-27T00:34:25.937Z,99275.04
2023-01-27T00:39:31.892Z,99276.89
2023-01-27T00:44:38.997Z,99278.55
2023-01-27T00:49:46.359Z,99273.26
2023-01-27T00:54:52.177Z,99269.94
2023-01-27T00:59:59.982Z,99268.78
2023-01-27T01:05:08.530Z,99265.44
2023-01-27T01:10:16.408Z,99261.52
2023-01-27T01:15:23.798Z,99260.38
2023-01-27T01:20:30.963Z,99262.67
2023-01-27T01:25:38.817Z,99261.95
2023-01-27T01:30:46.019Z,99261.25
2023-01-27T01:35:53.407Z,99255.55
2023-01-27T01:40:58.973Z,99254.70
2023-01-27T01:46:10.768Z,99258.08
2023-01-27T01:51:22.900Z,99256.83
2023-01-27T01:56:33.740Z,99257.28
2023-01-27T02:01:41.305Z,99258.66
2023-01-27T02:06:56.373Z,99256.73
2023-01-27T02:12:04.902Z,99253.70
2023-01-27T02:17:14.788Z,99254.48
2023-01-27T02:22:28.718Z,99258.05
2023-01-27T02:27:36.334Z,99262.66
2023-01-27T02:32:44.637Z,99263.84
2023-01-27T02:37:54.318Z,99262.28
2023-01-27T02:43:01.834Z,99265.66
2023-01-27T02:48:09.542Z,99265.88
2023-01-27T02:53:17.115Z,99263.91
2023-01-27T02:58:24.756Z,99265.50
2023-01-27T03:03:30.543Z,99273.23
2023-01-27T03:08:37.935Z,99271.04
2023-01-27T03:13:46.254Z,99272.79
2023-01-27T03:18:56.744Z,99269.23
2023-01-27T03:24:04.205Z,99263.29
2023-01-27T03:29:28.863Z,99263.86
2023-01-27T03:34:36.171Z,99269.11
2023-01-27T03:40:01.269Z,99255.61
2023-01-27T03:45:29.069Z,99251.41
2023-01-27T03:50:42.632Z,99253.27
2023-01-27T03:55:49.903Z,99253.40
2023-01-27T04:01:00.226Z,99254.89
2023-01-27T04:06:27.191Z,99257.45
2023-01-27T04:11:52.556Z,99260.62
2023-01-27T04:17:02.329Z,99260.48
2023-01-27T04:22:12.150Z,99259.98
2023-01-27T04:27:20.611Z,99261.80
2023-01-27T04:32:28.125Z,99259.77
2023-01-27T04:37:35.630Z,99264.95
2023-01-27T04:42:41.566Z,99263.75
2023-01-27T04:47:48.748Z,99269.04
2023-01-27T04:52:54.552Z,99269.11
2023-01-27T04:58:01.961Z,99271.38
2023-01-27T05:03:10.548Z,99267.31
2023-01-27T05:08:19.062Z,99273.98
2023-01-27T05:13:26.312Z,99275.58
2023-01-27T05:18:34.555Z,99278.59
2023-01-27T05:23:42.889Z,99281.88
2023-01-27T05:28:51.345Z,99284.77
2023-01-27T05:34:00.270Z,99282.04
2023-01-27T05:39:08.973Z,99279.69
2023-01-27T05:44:16.800Z,99283.93
2023-01-27T05:49:23.927Z,99283.56
2023-01-27T05:54:29.731Z,99282.11
2023-01-27T05:59:37.677Z,99286.33
2023-01-27T06:04:45.605Z,99292.68
2023-01-27T06:09:53.569Z,99299.96
2023-01-27T06:15:01.580Z,99303.89
2023-01-27T06:20:10.973Z,99306.46
2023-01-27T06:25:18.831Z,99306.33
2023-01-27T06:30:26.671Z,99310.66
2023-01-27T06:35:35.063Z,99312.82
2023-01-27T06:40:43.288Z,99316.67
2023-01-27T06:45:52.547Z,99315.67
2023-01-27T06:51:00.441Z,99317.88
2023-01-27T06:56:10.703Z,99321.48
2023-01-27T07:01:18.806Z,99325.05
2023-01-27T07:06:26.373Z,99325.88
2023-01-27T07:11:33.753Z,99338.73
2023-01-27T07:16:41.474Z,99331.19
2023-01-27T07:21:49.044Z,99325.80
2023-01-27T07:26:56.355Z,99334.66
2023-01-27T07:32:02.545Z,99340.96
2023-01-27T07:37:10.176Z,99343.41
2023-01-27T07:42:18.577Z,99348.50
2023-01-27T07:47:25.767Z,99351.13
2023-01-27T07:52:31.727Z,99347.80
2023-01-27T07:57:39.245Z,99344.99
2023-01-27T08:02:51.327Z,99349.77
2023-01-27T08:07:59.590Z,99347.61
2023-01-27T08:13:07.130Z,99350.38
2023-01-27T08:18:14.624Z,99355.28
2023-01-27T08:23:24.591Z,99359.23
2023-01-27T08:28:33.929Z,99361.59
2023-01-27T08:33:42.759Z,99369.52
2023-01-27T08:38:52.550Z,99368.59
2023-01-27T08:44:00.435Z,99371.03
2023-01-27T08:49:07.935Z,99370.80
2023-01-27T08:54:16.053Z,99373.18
2023-01-27T08:59:23.219Z,99379.17
2023-01-27T09:04:30.785Z,99382.09
2023-01-27T09:09:38.214Z,99383.79
2023-01-27T09:14:46.186Z,99380.38
2023-01-27T09:19:54.891Z,99379.92
2023-01-27T09:25:02.077Z,99387.18
2023-01-27T09:30:11.663Z,99385.38
2023-01-27T09:35:19.813Z,99386.85
2023-01-27T09:40:37.445Z,99388.34
2023-01-27T09:46:08.985Z,99389.61
2023-01-27T09:51:26.167Z,99389.34
2023-01-27T09:56:47.063Z,99383.05
2023-01-27T10:02:05.796Z,99380.12
2023-01-27T10:07:30.269Z,99380.15
2023-01-27T10:12:50.216Z,99370.58
2023-01-27T10:18:09.523Z,99361.52
2023-01-27T10:23:32.834Z,99359.05
2023-01-27T10:28:48.114Z,99358.34
2023-01-27T10:33:57.173Z,99353.95
2023-01-27T10:39:21.556Z,99352.62
2023-01-27T10:44:44.693Z,99357.65
2023-01-27T10:49:57.657Z,99355.54
2023-01-27T10:55:15.185Z,99355.63
2023-01-27T11:01:05.077Z,99353.81
2023-01-27T11:06:05.738Z,99356.38
2023-01-27T11:11:31.054Z,99361.17
2023-01-27T11:16:42.004Z,99360.13
2023-01-27T11:22:06.741Z,99357.04
2023-01-27T11:27:24.137Z,99356.56
2023-01-27T11:32:44.246Z,99352.75
2023-01-27T11:38:00.662Z,99356.34
2023-01-27T11:43:18.983Z,99356.44
2023-01-27T11:48:28.000Z,99360.53
2023-01-27T11:53:40.454Z,99359.14
2023-01-27T11:58:54.807Z,99357.64
2023-01-27T12:04:07.981Z,99366.06
2023-01-27T12:09:34.675Z,99367.61
2023-01-27T12:14:49.060Z,99370.61
2023-01-27T12:19:58.886Z,99370.65
2023-01-27T12:25:15.574Z,99363.18
2023-01-27T12:30:26.399Z,99360.17
2023-01-27T12:35:38.357Z,99352.87
2023-01-27T12:40:49.432Z,99355.33
2023-01-27T12:46:25.170Z,99352.21
2023-01-27T12:51:45.302Z,99348.02
2023-01-27T12:56:53.857Z,99347.29
2023-01-27T13:02:06.710Z,99348.34
2023-01-27T13:07:21.673Z,99347.06
2023-01-27T13:12:31.608Z,99346.98
2023-01-27T13:17:45.794Z,99346.90
2023-01-27T13:22:56.208Z,99346.73
2023-01-27T13:28:09.183Z,99342.63
2023-01-27T13:33:28.324Z,99350.17
2023-01-27T13:38:44.691Z,99353.95
2023-01-27T13:44:01.445Z,99358.99
2023-01-27T13:49:33.737Z,99356.73
2023-01-27T13:54:42.946Z,99363.05
2023-01-27T14:00:04.673Z,99364.75
2023-01-27T14:05:28.380Z,99361.20
2023-01-27T14:10:42.526Z,99363.65
2023-01-27T14:15:56.301Z,99367.29
2023-01-27T14:21:40.706Z,99376.52
2023-01-27T14:27:02.724Z,99380.33
2023-01-27T14:32:20.991Z,99380.23
2023-01-27T14:37:36.804Z,99376.77
2023-01-27T14:42:51.892Z,99373.80
2023-01-27T14:48:09.844Z,99375.84
2023-01-27T14:53:37.879Z,99376.40
2023-01-27T14:58:48.221Z,99384.45
2023-01-27T15:04:22.390Z,99390.21
2023-01-27T15:09:59.606Z,99405.35
2023-01-27T15:15:28.803Z,99415.59
2023-01-27T15:20:58.431Z,99429.60
2023-01-27T15:26:09.338Z,99428.40
2023-01-27T15:31:29.139Z,99429.69
2023-01-27T15:36:40.392Z,99431.92
2023-01-27T15:42:12.897Z,99428.06
2023-01-27T15:47:27.081Z,99429.39
2023-01-27T15:52:38.273Z,99429.52
2023-01-27T15:57:46.529Z,99432.78
2023-01-27T16:02:57.262Z,99439.32
2023-01-27T16:08:11.961Z,99443.97
2023-01-27T16:13:25.516Z,99441.16
2023-01-27T16:18:46.057Z,99434.46
2023-01-27T16:23:58.392Z,99442.15
2023-01-27T16:29:30.115Z,99441.91
2023-01-27T16:34:46.467Z,99439.58
2023-01-27T16:40:02.852Z,99445.94
2023-01-27T16:45:20.320Z,99448.04
2023-01-27T16:50:45.971Z,99446.88
2023-01-27T16:56:02.645Z,99454.62
2023-01-27T17:01:19.825Z,99462.61
2023-01-27T17:06:27.261Z,99464.80
2023-01-27T17:11:35.808Z,99468.95
2023-01-27T17:16:46.008Z,99471.79
2023-01-27T17:21:57.056Z,99472.65
2023-01-27T17:27:10.293Z,99472.04
2023-01-27T17:32:26.253Z,99470.64
2023-01-27T17:37:34.752Z,99472.73
2023-01-27T17:42:44.890Z,99477.27
2023-01-27T17:47:52.814Z,99473.64
2023-01-27T17:53:00.212Z,99474.03
2023-01-27T17:58:11.510Z,99478.21
2023-01-27T18:03:24.035Z,99482.31
2023-01-27T18:08:37.323Z,99482.65
2023-01-27T18:13:44.585Z,99487.11
2023-01-27T18:18:50.851Z,99484.61
2023-01-27T18:24:00.418Z,99488.74
2023-01-27T18:29:17.564Z,99499.50
2023-01-27T18:34:29.694Z,99509.12
2023-01-27T18:39:42.415Z,99518.25
2023-01-27T18:44:51.839Z,99520.26
2023-01-27T18:50:08.783Z,99525.30
2023-01-27T18:55:20.476Z,99530.20
2023-01-27T19:00:30.532Z,99530.95
2023-01-27T19:05:38.875Z,99533.45
2023-01-27T19:10:46.631Z,99538.58
2023-01-27T19:15:56.298Z,99543.80
2023-01-27T19:21:04.370Z,99548.38
2023-01-27T19:26:18.541Z,99549.77
2023-01-27T19:31:26.288Z,99550.73
2023-01-27T19:36:38.517Z,99553.99
2023-01-27T19:41:47.008Z,99550.81
2023-01-27T19:46:55.917Z,99551.58
2023-01-27T19:52:04.352Z,99540.83
2023-01-27T19:57:18.734Z,99548.96
2023-01-27T20:02:26.185Z,99553.97
2023-01-27T20:07:33.848Z,99557.80
2023-01-27T20:12:41.302Z,99562.43
2023-01-27T20:17:48.527Z,99564.55
2023-01-27T20:22:54.831Z,99569.59
2023-01-27T20:28:03.034Z,99571.02
2023-01-27T20:33:14.938Z,99567.48
2023-01-27T20:38:22.878Z,99569.65
2023-01-27T20:43:35.182Z,99566.77
2023-01-27T20:48:43.202Z,99568.77
2023-01-27T20:53:50.826Z,99566.07
2023-01-27T20:58:58.311Z,99565.32
2023-01-27T21:04:05.733Z,99567.58
2023-01-27T21:09:13.226Z,99571.28
2023-01-27T21:14:21.560Z,99565.83
2023-01-27T21:19:29.280Z,99562.48
2023-01-27T21:24:37.185Z,99564.08
2023-01-27T21:29:45.410Z,99562.45
2023-01-27T21:34:52.896Z,99562.73
2023-01-27T21:40:00.226Z,99562.73
2023-01-27T21:45:16.584Z,99559.85
2023-01-27T21:50:24.140Z,99560.73
2023-01-27T21:55:32.515Z,99557.44
2023-01-27T22:00:40.437Z,99561.37
2023-01-27T22:05:48.750Z,99563.80
2023-01-27T22:10:55.934Z,99562.52
2023-01-27T22:16:02.040Z,99558.55
2023-01-27T22:21:09.696Z,99557.38
2023-01-27T22:26:19.794Z,99554.11
2023-01-27T22:31:28.826Z,99553.21
2023-01-27T22:36:38.087Z,99556.23
2023-01-27T22:41:46.703Z,99557.52
2023-01-27T22:46:54.295Z,99553.17
2023-01-27T22:52:03.241Z,99554.56
2023-01-27T22:57:10.677Z,99552.48
2023-01-27T23:02:19.213Z,99550.64
2023-01-27T23:07:28.924Z,99548.16
2023-01-27T23:12:36.706Z,99548.88
2023-01-27T23:17:44.854Z,99544.92
2023-01-27T23:22:52.985Z,99549.00
2023-01-27T23:28:01.223Z,99546.84
2023-01-27T23:33:08.874Z,99546.52
2023-01-27T23:38:31.434Z,99543.02
2023-01-27T23:43:39.968Z,99541.52
2023-01-27T23:48:52.464Z,99535.91
2023-01-27T23:53:59.728Z,99528.48
2023-01-27T23:59:07.034Z,99528.42
